createdAt,value
2023-10-31T00:02:16.485Z,80.57
2023-10-31T00:04:48.232Z,80.31
2023-10-31T00:07:20.002Z,80.50
2023-10-31T00:09:51.784Z,80.83
2023-10-31T00:12:23.388Z,80.77
2023-10-31T00:14:55.395Z,80.61
2023-10-31T00:17:27.039Z,80.22
2023-10-31T00:19:58.644Z,79.98
2023-10-31T00:22:30.291Z,79.83
2023-10-31T00:25:01.947Z,80.30
2023-10-31T00:27:33.872Z,79.75
2023-10-31T00:30:06.718Z,79.34
2023-10-31T00:32:38.405Z,79.21
2023-10-31T00:35:13.751Z,79.08
2023-10-31T00:37:45.524Z,78.85
2023-10-31T00:40:18.822Z,78.60
2023-10-31T00:42:50.498Z,78.76
2023-10-31T00:45:22.262Z,78.78
2023-10-31T00:47:54.025Z,78.26
2023-10-31T00:50:25.840Z,78.10
2023-10-31T00:52:57.444Z,77.87
2023-10-31T00:55:29.372Z,77.70
2023-10-31T00:58:01.372Z,77.92
2023-10-31T01:00:35.257Z,77.97
2023-10-31T01:03:07.045Z,77.87
2023-10-31T01:05:38.966Z,77.36
2023-10-31T01:08:10.773Z,76.74
2023-10-31T01:10:42.674Z,76.88
2023-10-31T01:13:14.574Z,76.78
2023-10-31T01:15:46.870Z,76.23
2023-10-31T01:18:18.627Z,75.77
2023-10-31T01:20:50.160Z,75.11
2023-10-31T01:23:21.685Z,74.21
2023-10-31T01:25:53.487Z,74.77
2023-10-31T01:28:25.119Z,73.91
2023-10-31T01:30:56.905Z,73.76
2023-10-31T01:33:28.900Z,72.77
2023-10-31T01:36:01.159Z,72.33
2023-10-31T01:38:33.233Z,71.97
2023-10-31T01:41:05.467Z,70.81
2023-10-31T01:43:38.863Z,71.79
2023-10-31T01:46:11.434Z,72.19
2023-10-31T01:48:44.426Z,71.45
2023-10-31T01:51:17.452Z,70.98
2023-10-31T01:53:49.562Z,70.89
2023-10-31T01:56:22.529Z,69.98
2023-10-31T01:58:55.201Z,70.19
2023-10-31T02:01:27.471Z,69.56
2023-10-31T02:03:59.769Z,70.15
2023-10-31T02:06:32.103Z,70.05
2023-10-31T02:09:04.154Z,70.10
2023-10-31T02:11:35.896Z,69.79
2023-10-31T02:14:07.985Z,70.14
2023-10-31T02:16:40.006Z,69.43
2023-10-31T02:19:12.665Z,69.31
2023-10-31T02:21:44.207Z,69.52
2023-10-31T02:24:15.778Z,69.63
2023-10-31T02:26:47.590Z,70.17
2023-10-31T02:29:19.362Z,70.08
2023-10-31T02:31:51.512Z,69.96
2023-10-31T02:34:23.252Z,70.19
2023-10-31T02:36:55.307Z,69.72
2023-10-31T02:39:26.906Z,69.22
2023-10-31T02:41:59.103Z,70.24
2023-10-31T02:44:30.630Z,69.82
2023-10-31T02:47:02.183Z,69.71
2023-10-31T02:49:33.782Z,69.78
2023-10-31T02:52:05.801Z,69.40
2023-10-31T02:54:37.659Z,69.31
2023-10-31T02:57:09.966Z,69.05
2023-10-31T02:59:41.900Z,69.38
2023-10-31T03:02:14.056Z,68.77
2023-10-31T03:04:45.949Z,69.24
2023-10-31T03:07:17.735Z,68.86
2023-10-31T03:09:49.431Z,68.87
2023-10-31T03:12:21.076Z,68.20
2023-10-31T03:14:52.737Z,68.62
2023-10-31T03:17:26.837Z,67.64
2023-10-31T03:19:58.658Z,67.92
2023-10-31T03:22:30.450Z,68.23
2023-10-31T03:25:02.374Z,68.56
2023-10-31T03:27:34.396Z,68.19
2023-10-31T03:30:07.659Z,68.36
2023-10-31T03:32:39.262Z,67.95
2023-10-31T03:35:11.965Z,68.26
2023-10-31T03:37:44.387Z,67.77
2023-10-31T03:40:17.106Z,68.68
2023-10-31T03:42:48.690Z,68.63
2023-10-31T03:45:20.365Z,68.82
2023-10-31T03:47:52.122Z,68.68
2023-10-31T03:50:23.712Z,68.32
2023-10-31T03:52:55.292Z,68.25
2023-10-31T03:55:27.421Z,68.12
2023-10-31T03:57:59.096Z,68.23
2023-10-31T04:00:30.723Z,68.90
2023-10-31T04:03:02.433Z,69.28
2023-10-31T04:05:34.276Z,69.18
2023-10-31T04:08:05.852Z,69.69
2023-10-31T04:10:37.751Z,69.36
2023-10-31T04:13:09.720Z,68.76
2023-10-31T04:15:41.252Z,69.08
2023-10-31T04:18:12.876Z,68.66
2023-10-31T04:20:45.300Z,68.82
2023-10-31T04:23:17.078Z,69.25
2023-10-31T04:25:48.731Z,69.48
2023-10-31T04:28:20.707Z,69.75
2023-10-31T04:30:52.682Z,70.10
2023-10-31T04:33:24.348Z,70.03
2023-10-31T04:35:56.032Z,70.40
2023-10-31T04:38:28.475Z,71.10
2023-10-31T04:41:00.446Z,71.00
2023-10-31T04:43:32.376Z,71.19
2023-10-31T04:46:04.286Z,70.64
2023-10-31T04:48:36.006Z,70.99
2023-10-31T04:51:08.457Z,70.90
2023-10-31T04:53:40.279Z,70.35
2023-10-31T04:56:17.609Z,70.94
2023-10-31T04:58:49.504Z,71.60
2023-10-31T05:01:21.436Z,71.30
2023-10-31T05:04:02.649Z,70.72
2023-10-31T05:06:39.352Z,70.55
2023-10-31T05:09:12.101Z,71.29
2023-10-31T05:11:44.622Z,71.17
2023-10-31T05:14:16.486Z,71.18
2023-10-31T05:16:48.385Z,71.67
2023-10-31T05:19:20.909Z,72.16
2023-10-31T05:21:52.785Z,72.27
2023-10-31T05:24:24.857Z,72.07
2023-10-31T05:26:57.629Z,71.84
2023-10-31T05:29:31.437Z,72.03
2023-10-31T05:32:03.902Z,72.09
2023-10-31T05:34:35.648Z,72.25
2023-10-31T05:37:08.100Z,72.53
2023-10-31T05:39:40.088Z,73.11
2023-10-31T05:42:12.463Z,73.48
2023-10-31T05:44:44.320Z,73.77
2023-10-31T05:47:16.240Z,73.17
2023-10-31T05:49:48.723Z,73.74
2023-10-31T05:52:20.518Z,74.44
2023-10-31T05:54:52.432Z,74.94
2023-10-31T05:57:24.150Z,74.88
2023-10-31T05:59:56.673Z,74.01
2023-10-31T06:02:28.442Z,74.45
2023-10-31T06:05:01.277Z,74.93
2023-10-31T06:07:33.614Z,74.85
2023-10-31T06:10:06.102Z,75.09
2023-10-31T06:12:38.039Z,75.22
2023-10-31T06:15:11.689Z,75.07
2023-10-31T06:17:43.545Z,75.59
2023-10-31T06:20:16.273Z,75.90
2023-10-31T06:22:48.152Z,75.67
2023-10-31T06:25:20.033Z,75.31
2023-10-31T06:27:51.513Z,75.73
2023-10-31T06:30:29.097Z,75.53
2023-10-31T06:33:02.609Z,75.31
2023-10-31T06:35:34.639Z,75.30
2023-10-31T06:38:06.833Z,75.36
2023-10-31T06:40:39.264Z,75.55
2023-10-31T06:43:10.907Z,75.26
2023-10-31T06:45:42.838Z,75.04
2023-10-31T06:48:14.770Z,75.54
2023-10-31T06:50:47.044Z,75.44
2023-10-31T06:53:18.800Z,74.81
2023-10-31T06:55:51.362Z,74.50
2023-10-31T06:58:24.099Z,75.38
2023-10-31T07:00:56.102Z,75.16
2023-10-31T07:03:28.130Z,75.18
2023-10-31T07:06:00.456Z,74.89
2023-10-31T07:08:32.182Z,74.64
2023-10-31T07:11:04.549Z,74.37
2023-10-31T07:13:36.348Z,73.71
2023-10-31T07:16:10.116Z,73.17
2023-10-31T07:18:42.243Z,72.74
2023-10-31T07:21:14.393Z,72.79
2023-10-31T07:23:46.195Z,72.34
2023-10-31T07:26:18.839Z,72.43
2023-10-31T07:28:50.523Z,72.97
2023-10-31T07:31:22.620Z,71.80
2023-10-31T07:33:54.550Z,71.55
2023-10-31T07:36:26.783Z,72.15
2023-10-31T07:38:58.388Z,72.01
2023-10-31T07:41:30.161Z,72.06
2023-10-31T07:44:01.822Z,71.88
2023-10-31T07:46:33.664Z,72.11
2023-10-31T07:49:05.399Z,72.27
2023-10-31T07:51:37.513Z,72.15
2023-10-31T07:54:10.599Z,72.12
2023-10-31T07:56:43.559Z,72.41
2023-10-31T07:59:15.486Z,72.08
2023-10-31T08:01:52.018Z,71.47
2023-10-31T08:04:25.000Z,71.76
2023-10-31T08:06:57.049Z,72.35
2023-10-31T08:09:29.224Z,72.09
2023-10-31T08:12:01.181Z,71.59
2023-10-31T08:14:33.077Z,70.91
2023-10-31T08:17:05.363Z,69.86
2023-10-31T08:19:36.973Z,69.76
2023-10-31T08:22:09.541Z,68.77
2023-10-31T08:24:41.652Z,68.12
2023-10-31T08:27:13.869Z,68.95
2023-10-31T08:29:45.766Z,68.62
2023-10-31T08:32:17.567Z,65.74
2023-10-31T08:34:49.803Z,65.47
2023-10-31T08:37:21.752Z,65.34
2023-10-31T08:39:53.632Z,66.09
2023-10-31T08:42:25.673Z,65.17
2023-10-31T08:44:57.676Z,65.54
2023-10-31T08:47:30.271Z,65.96
2023-10-31T08:50:02.332Z,65.93
2023-10-31T08:52:34.324Z,64.84
2023-10-31T08:55:07.407Z,64.05
2023-10-31T08:57:39.291Z,64.53
2023-10-31T09:00:14.348Z,64.54
2023-10-31T09:02:46.063Z,65.48
2023-10-31T09:05:17.951Z,65.14
2023-10-31T09:07:50.330Z,64.18
2023-10-31T09:10:22.093Z,63.78
2023-10-31T09:12:54.572Z,62.26
2023-10-31T09:15:26.295Z,57.61
2023-10-31T09:17:58.434Z,53.95
2023-10-31T09:20:31.113Z,51.12
2023-10-31T09:23:02.927Z,47.66
2023-10-31T09:25:34.697Z,46.94
2023-10-31T09:28:07.356Z,48.46
2023-10-31T09:30:39.456Z,48.83
2023-10-31T09:33:11.343Z,45.88
2023-10-31T09:35:43.178Z,46.30
2023-10-31T09:38:15.241Z,48.90
2023-10-31T09:40:47.333Z,49.11
2023-10-31T09:43:19.989Z,50.24
2023-10-31T09:45:52.398Z,50.35
2023-10-31T09:48:24.380Z,51.38
2023-10-31T09:50:57.004Z,52.86
2023-10-31T09:53:29.488Z,53.29
2023-10-31T09:56:01.387Z,53.93
2023-10-31T09:58:33.791Z,54.12
2023-10-31T10:01:06.001Z,53.70
2023-10-31T10:03:38.407Z,54.47
2023-10-31T10:06:11.834Z,54.48
2023-10-31T10:08:43.586Z,55.72
2023-10-31T10:11:16.601Z,55.75
2023-10-31T10:13:48.524Z,55.84
2023-10-31T10:16:33.683Z,56.11
2023-10-31T10:19:21.669Z,56.39
2023-10-31T10:21:56.286Z,56.44
2023-10-31T10:24:28.470Z,56.89
2023-10-31T10:27:00.062Z,56.72
2023-10-31T10:29:31.933Z,56.78
2023-10-31T10:32:04.128Z,56.83
2023-10-31T10:34:36.146Z,56.56
2023-10-31T10:37:09.078Z,56.86
2023-10-31T10:39:45.260Z,57.13
2023-10-31T10:42:20.898Z,56.80
2023-10-31T10:44:56.356Z,56.85
2023-10-31T10:47:28.344Z,56.95
2023-10-31T10:50:04.067Z,56.72
2023-10-31T10:52:44.661Z,54.96
2023-10-31T10:55:23.678Z,54.49
2023-10-31T10:58:06.435Z,55.08
2023-10-31T11:00:39.067Z,54.84
2023-10-31T11:03:11.754Z,54.65
2023-10-31T11:05:44.747Z,55.44
2023-10-31T11:08:17.213Z,55.46
2023-10-31T11:10:50.333Z,54.29
2023-10-31T11:13:22.800Z,51.75
2023-10-31T11:15:59.719Z,50.16
2023-10-31T11:18:32.246Z,48.46
2023-10-31T11:21:04.194Z,50.39
2023-10-31T11:23:35.959Z,50.08
2023-10-31T11:26:11.053Z,50.87
2023-10-31T11:28:42.718Z,50.77
2023-10-31T11:31:14.716Z,51.39
2023-10-31T11:33:47.563Z,50.71
2023-10-31T11:36:21.925Z,52.01
2023-10-31T11:39:11.888Z,51.08
2023-10-31T11:41:48.097Z,50.93
2023-10-31T11:44:20.142Z,51.51
2023-10-31T11:46:54.145Z,51.89
2023-10-31T11:49:49.268Z,51.08
2023-10-31T11:52:21.738Z,50.47
2023-10-31T11:54:53.987Z,50.58
2023-10-31T11:57:32.693Z,51.35
2023-10-31T12:00:06.032Z,51.50
2023-10-31T12:02:38.097Z,51.80
2023-10-31T12:05:15.928Z,51.88
2023-10-31T12:07:48.685Z,50.77
2023-10-31T12:10:28.110Z,50.64
2023-10-31T12:13:00.874Z,51.09
2023-10-31T12:15:32.689Z,50.03
2023-10-31T12:18:04.593Z,50.01
2023-10-31T12:20:49.092Z,49.96
2023-10-31T12:23:21.319Z,49.31
2023-10-31T12:25:54.437Z,49.82
2023-10-31T12:28:29.398Z,49.70
2023-10-31T12:31:04.488Z,49.09
2023-10-31T12:33:34.778Z,49.42
2023-10-31T12:36:08.169Z,50.09
2023-10-31T12:38:40.036Z,50.97
2023-10-31T12:41:11.865Z,51.52
2023-10-31T12:43:43.843Z,51.44
2023-10-31T12:46:33.551Z,51.66
2023-10-31T12:49:05.265Z,51.66
2023-10-31T12:51:37.014Z,51.42
2023-10-31T12:54:10.029Z,50.75
2023-10-31T12:56:45.599Z,51.24
2023-10-31T12:59:21.394Z,50.56
2023-10-31T13:01:53.482Z,51.43
2023-10-31T13:04:30.104Z,51.59
2023-10-31T13:07:04.454Z,51.57
2023-10-31T13:09:38.670Z,51.86
2023-10-31T13:12:12.890Z,51.75
2023-10-31T13:14:44.633Z,51.63
2023-10-31T13:17:16.364Z,51.64
2023-10-31T13:19:48.439Z,52.39
2023-10-31T13:22:19.930Z,52.97
2023-10-31T13:24:52.056Z,52.84
2023-10-31T13:27:23.828Z,52.57
2023-10-31T13:29:55.272Z,53.45
2023-10-31T13:32:26.910Z,53.54
2023-10-31T13:34:59.146Z,54.00
2023-10-31T13:37:31.222Z,54.60
2023-10-31T13:40:03.106Z,54.89
2023-10-31T13:42:34.928Z,54.92
2023-10-31T13:45:08.061Z,55.10
2023-10-31T13:47:40.335Z,55.10
2023-10-31T13:50:13.190Z,54.76
2023-10-31T13:52:44.817Z,55.32
2023-10-31T13:55:17.789Z,55.65
2023-10-31T13:57:49.693Z,56.33
2023-10-31T14:00:21.677Z,56.41
2023-10-31T14:02:53.541Z,57.04
2023-10-31T14:05:25.446Z,57.32
2023-10-31T14:07:57.134Z,57.24
2023-10-31T14:10:29.188Z,56.91
2023-10-31T14:13:00.781Z,56.60
2023-10-31T14:15:34.083Z,56.99
2023-10-31T14:18:05.846Z,57.50
2023-10-31T14:20:38.041Z,57.51
2023-10-31T14:23:09.729Z,57.26
2023-10-31T14:25:43.480Z,57.24
2023-10-31T14:28:16.251Z,56.81
2023-10-31T14:30:47.883Z,56.30
2023-10-31T14:33:19.703Z,56.25
2023-10-31T14:35:51.569Z,55.51
2023-10-31T14:38:23.443Z,55.28
2023-10-31T14:40:55.148Z,56.09
2023-10-31T14:43:26.817Z,56.46
2023-10-31T14:45:59.265Z,56.24
2023-10-31T14:48:32.238Z,56.78
2023-10-31T14:51:05.008Z,57.01
2023-10-31T14:53:36.866Z,57.40
2023-10-31T14:56:10.146Z,57.87
2023-10-31T14:58:43.601Z,57.82
2023-10-31T15:01:15.684Z,57.72
2023-10-31T15:03:47.396Z,58.68
2023-10-31T15:06:19.079Z,58.35
2023-10-31T15:08:50.792Z,58.40
2023-10-31T15:11:22.518Z,58.09
2023-10-31T15:13:54.256Z,57.99
2023-10-31T15:16:26.435Z,58.51
2023-10-31T15:18:58.157Z,58.92
2023-10-31T15:21:29.923Z,59.03
2023-10-31T15:24:01.579Z,59.04
2023-10-31T15:26:33.788Z,59.54
2023-10-31T15:29:05.491Z,59.29
2023-10-31T15:31:37.841Z,59.36
2023-10-31T15:34:09.536Z,59.65
2023-10-31T15:36:41.285Z,59.83
2023-10-31T15:39:13.482Z,59.88
2023-10-31T15:41:45.190Z,59.89
2023-10-31T15:44:16.824Z,60.20
2023-10-31T15:46:48.580Z,60.22
2023-10-31T15:49:20.497Z,60.10
2023-10-31T15:51:52.118Z,60.01
2023-10-31T15:54:23.894Z,59.77
2023-10-31T15:56:55.723Z,59.73
2023-10-31T15:59:27.366Z,60.74
2023-10-31T16:01:59.186Z,59.78
2023-10-31T16:04:30.786Z,60.07
2023-10-31T16:07:02.700Z,59.85
2023-10-31T16:09:34.299Z,59.83
2023-10-31T16:12:08.269Z,59.88
2023-10-31T16:14:39.978Z,60.42
2023-10-31T16:17:11.617Z,60.03
2023-10-31T16:19:43.260Z,60.29
2023-10-31T16:22:14.928Z,60.80
2023-10-31T16:24:46.711Z,60.93
2023-10-31T16:27:18.794Z,61.19
2023-10-31T16:29:50.400Z,61.10
2023-10-31T16:32:22.205Z,61.44
2023-10-31T16:34:54.709Z,62.28
2023-10-31T16:37:26.482Z,62.77
2023-10-31T16:39:58.347Z,62.56
2023-10-31T16:42:33.537Z,63.21
2023-10-31T16:45:07.125Z,63.02
2023-10-31T16:47:39.600Z,64.05
2023-10-31T16:50:14.058Z,63.29
2023-10-31T16:52:46.688Z,63.71
2023-10-31T16:55:18.305Z,64.67
2023-10-31T16:57:50.005Z,65.13
2023-10-31T17:00:23.162Z,65.41
2023-10-31T17:02:55.047Z,64.86
2023-10-31T17:05:27.050Z,65.24
2023-10-31T17:07:59.117Z,64.17
2023-10-31T17:10:30.834Z,63.72
2023-10-31T17:13:02.627Z,64.06
2023-10-31T17:15:34.425Z,64.53
2023-10-31T17:18:07.348Z,64.34
2023-10-31T17:20:39.767Z,63.20
2023-10-31T17:23:11.847Z,63.71
2023-10-31T17:25:43.642Z,63.93
2023-10-31T17:28:17.223Z,64.66
2023-10-31T17:30:49.276Z,64.91
2023-10-31T17:33:21.155Z,65.62
2023-10-31T17:35:52.969Z,65.42
2023-10-31T17:38:25.095Z,65.33
2023-10-31T17:40:57.659Z,65.45
2023-10-31T17:43:30.020Z,65.80
2023-10-31T17:46:01.789Z,65.89
2023-10-31T17:48:33.730Z,66.30
2023-10-31T17:51:06.230Z,66.77
2023-10-31T17:53:40.398Z,66.64
2023-10-31T17:56:12.363Z,66.91
2023-10-31T17:58:44.228Z,67.52
2023-10-31T18:01:15.926Z,67.33
2023-10-31T18:03:47.704Z,66.82
2023-10-31T18:06:19.518Z,66.93
2023-10-31T18:08:51.399Z,66.89
2023-10-31T18:11:23.137Z,67.62
2023-10-31T18:13:54.980Z,68.32
2023-10-31T18:16:26.570Z,68.31
2023-10-31T18:18:58.427Z,67.92
2023-10-31T18:21:30.962Z,67.80
2023-10-31T18:24:03.628Z,67.21
2023-10-31T18:26:35.290Z,67.37
2023-10-31T18:29:07.663Z,67.76
2023-10-31T18:31:40.715Z,67.88
2023-10-31T18:34:12.626Z,68.05
2023-10-31T18:36:44.222Z,69.11
2023-10-31T18:39:16.018Z,69.48
2023-10-31T18:41:59.654Z,68.50
2023-10-31T18:44:46.597Z,68.66
2023-10-31T18:47:24.745Z,68.83
2023-10-31T18:49:57.980Z,68.27
2023-10-31T18:52:29.906Z,69.03
2023-10-31T18:55:01.964Z,68.64
2023-10-31T18:57:33.970Z,68.99
2023-10-31T19:00:08.656Z,69.23
2023-10-31T19:02:40.712Z,69.50
2023-10-31T19:05:14.270Z,69.41
2023-10-31T19:07:47.243Z,69.70
2023-10-31T19:10:20.010Z,69.96
2023-10-31T19:12:51.613Z,70.01
2023-10-31T19:15:23.916Z,69.93
2023-10-31T19:17:55.772Z,70.28
2023-10-31T19:20:28.746Z,70.60
2023-10-31T19:23:01.899Z,70.83
2023-10-31T19:25:33.715Z,70.35
2023-10-31T19:28:05.930Z,71.23
2023-10-31T19:30:40.548Z,71.66
2023-10-31T19:33:12.247Z,70.81
2023-10-31T19:35:43.985Z,71.27
2023-10-31T19:38:16.137Z,73.14
2023-10-31T19:40:48.315Z,72.49
2023-10-31T19:43:20.043Z,72.32
2023-10-31T19:45:51.956Z,72.35
2023-10-31T19:48:23.637Z,72.94
2023-10-31T19:50:55.678Z,72.87
2023-10-31T19:53:27.407Z,72.35
2023-10-31T19:55:59.298Z,73.16
2023-10-31T19:58:30.893Z,72.89
2023-10-31T20:01:02.679Z,73.19
2023-10-31T20:03:34.419Z,73.93
2023-10-31T20:06:08.057Z,73.92
2023-10-31T20:08:39.913Z,73.35
2023-10-31T20:11:12.769Z,74.07
2023-10-31T20:13:44.970Z,73.42
2023-10-31T20:16:17.338Z,74.11
2023-10-31T20:18:48.888Z,74.64
2023-10-31T20:21:21.292Z,74.55
2023-10-31T20:23:53.216Z,74.15
2023-10-31T20:26:25.067Z,74.29
2023-10-31T20:28:56.823Z,74.59
2023-10-31T20:31:28.596Z,75.06
2023-10-31T20:34:00.252Z,75.36
2023-10-31T20:36:31.955Z,75.07
2023-10-31T20:39:03.840Z,74.99
2023-10-31T20:41:37.061Z,75.64
2023-10-31T20:44:09.026Z,75.22
2023-10-31T20:46:41.561Z,75.40
2023-10-31T20:49:13.468Z,75.71
2023-10-31T20:51:46.263Z,75.40
2023-10-31T20:54:17.942Z,75.54
2023-10-31T20:56:49.676Z,75.26
2023-10-31T20:59:21.371Z,76.05
2023-10-31T21:01:53.231Z,75.36
2023-10-31T21:04:26.282Z,75.17
2023-10-31T21:07:00.459Z,74.82
2023-10-31T21:09:32.055Z,74.46
2023-10-31T21:12:04.514Z,74.21
2023-10-31T21:14:36.498Z,74.59
2023-10-31T21:17:08.647Z,74.98
2023-10-31T21:19:40.516Z,75.51
2023-10-31T21:22:12.630Z,75.85
2023-10-31T21:24:44.365Z,75.43
2023-10-31T21:27:16.489Z,75.41
2023-10-31T21:29:48.157Z,75.64
2023-10-31T21:32:19.915Z,75.63
2023-10-31T21:34:52.046Z,75.52
2023-10-31T21:37:24.515Z,75.61
2023-10-31T21:39:56.211Z,75.35
2023-10-31T21:42:28.148Z,75.24
2023-10-31T21:45:01.503Z,74.95
2023-10-31T21:47:33.282Z,75.42
2023-10-31T21:50:05.778Z,74.99
2023-10-31T21:52:37.831Z,75.42
2023-10-31T21:55:11.788Z,75.47
2023-10-31T21:57:43.637Z,74.98
2023-10-31T22:00:17.773Z,75.57
2023-10-31T22:02:49.830Z,75.56
2023-10-31T22:05:22.180Z,75.27
2023-10-31T22:07:53.992Z,75.22
2023-10-31T22:10:25.809Z,75.22
2023-10-31T22:12:57.636Z,75.10
2023-10-31T22:15:29.378Z,75.23
2023-10-31T22:18:01.263Z,75.21
2023-10-31T22:20:33.239Z,75.29
2023-10-31T22:23:05.516Z,75.12
2023-10-31T22:25:37.160Z,74.98
2023-10-31T22:28:09.037Z,74.93
2023-10-31T22:30:40.603Z,74.94
2023-10-31T22:33:13.112Z,75.50
2023-10-31T22:35:44.899Z,75.84
2023-10-31T22:38:16.586Z,75.25
2023-10-31T22:40:48.511Z,75.08
2023-10-31T22:43:20.703Z,75.24
2023-10-31T22:45:52.375Z,75.33
2023-10-31T22:48:24.396Z,75.37
2023-10-31T22:50:55.967Z,74.93
2023-10-31T22:53:31.309Z,74.58
2023-10-31T22:56:03.993Z,75.54
2023-10-31T22:58:36.083Z,75.73
2023-10-31T23:01:09.346Z,75.54
2023-10-31T23:03:41.159Z,76.12
2023-10-31T23:06:12.989Z,77.08
2023-10-31T23:08:44.816Z,76.78
2023-10-31T23:11:16.627Z,76.88
2023-10-31T23:13:48.614Z,77.40
2023-10-31T23:16:20.491Z,78.25
2023-10-31T23:18:52.287Z,78.03
2023-10-31T23:21:24.365Z,77.31
2023-10-31T23:23:56.248Z,78.02
2023-10-31T23:26:28.106Z,77.97
2023-10-31T23:29:01.020Z,78.49
2023-10-31T23:31:32.897Z,77.93
2023-10-31T23:34:05.243Z,77.61
2023-10-31T23:36:36.871Z,77.43
2023-10-31T23:39:08.923Z,76.94
2023-10-31T23:41:41.212Z,77.10
2023-10-31T23:44:13.093Z,76.92
2023-10-31T23:46:44.822Z,76.78
2023-10-31T23:49:16.314Z,77.08
2023-10-31T23:51:48.114Z,76.72
2023-10-31T23:54:19.966Z,76.82
2023-10-31T23:56:51.753Z,76.96
2023-10-31T23:59:23.933Z,76.75
